Aeroporto :
LOGIN :

Iscrizione | Disclaimer

   EN    FR    IT 

 










Sommario :    VFR   VFR Marginale   IFR   IFR Intensivo   IFR Molto Intensivo
Visibilità : 
Base nubi : 
>= 8 km
>= 3000ft
5 / 8 km
1000 / 3000 ft
1500m / 5 km
500 / 1000 ft
800 / 1500m
200 / 500 ft
< 800m
< 200 ft
Simboli :   Temporali  Nebbia  Neve Forte  Precipitazioni Forti  Vento > 20 kt
SIGMETs :   Varie  Temporali  Ghiacco  Turbolenza  Onda orograficha  Ceneri Vulcaniche






- Altitudine del aeroporto : 74 ft
- Codice IATA : NDZ


ETMN - Cuxhaven Nordholz Sea AB

ULTIMO METAR :
  • 060920Z 28016KT 8000 SCT018CB BKN050 13/11 Q1008 RESHRA BLU BLU+ TEMPO YLO

METARs OBSOLETI :
  • 060855Z 28017G30KT 4500 SHRA BKN018CB BKN050 14/10 Q1007 GRN BLU+ TEMPO YLO
  • 060820Z 26014KT 9999 SCT015CB BKN050 12/09 Q1007 RESHRA BLU BLU+ TEMPO YLO
  • 060750Z 28022G35KT 7000 -SHRA SCT012CB SCT050 13/10 Q1006 RESHRA WHT BLU+ TEMPO YLO
  • 060720Z 28022G35KT 5000 SHRA BKN012CB SCT040 13/10 Q1006 GRN BLU+ TEMPO YLO
  • 060646Z 25018G30KT 5000 -SHRA SCT015CB SCT060 14/10 Q1006 WHT BLU+ TEMPO YLO

TAF TAF ETMN
Valido dal 06 a 08 ore il 06 a 17 ore UTC


060707Z 0608/0617 25020G30KT 9999 NSW SCT015 SCT050
TEMPO 0608/0617 29025G40KT 3000 SHRA BKN010 BKN015CB
PROB30 0608/0617 VRB25G45KT 2000 TSGS BKN008 BKN015CB
BECMG 0609/0611 29020G35KT 9999 NSW SCT015 SCT050



MetMap, La meteo Aeronautica in un colpo d'occhio ! - Copyright ORBIFLY Dicembre 2007 - Disclaimer

ORBIFLY MET'MAP TEAM :

Programmazione e sviluppo : Alexandra Zaïnal
Concezione : Baudouin d'Aumeries
Aiuto per la programmazione : Marc-Olivier Méhu
Supporto tecnico e logistico : Manuel Goepfert
Aiuto per la traduzione : Arnaldo La Scala

Contatto : metmap@orbifly.com




FONTI E CREDITI :

   NOAA